createdAt,value
2018-02-17T00:02:17.312Z,30.43
2018-02-17T00:04:46.037Z,26.83
2018-02-17T00:07:15.909Z,46.90
2018-02-17T00:09:44.597Z,48.57
2018-02-17T00:12:13.381Z,35.43
2018-02-17T00:14:42.171Z,27.93
2018-02-17T00:17:10.944Z,50.83
2018-02-17T00:19:39.275Z,34.27
2018-02-17T00:22:07.554Z,50.90
2018-02-17T00:24:35.833Z,39.60
2018-02-17T00:27:04.173Z,52.77
2018-02-17T00:29:33.185Z,40.97
2018-02-17T00:32:01.652Z,51.23
2018-02-17T00:34:30.020Z,40.70
2018-02-17T00:36:58.308Z,30.50
2018-02-17T00:39:27.645Z,36.00
2018-02-17T00:41:56.511Z,51.83
2018-02-17T00:44:24.784Z,34.77
2018-02-17T00:46:53.065Z,54.60
2018-02-17T00:49:21.365Z,61.90
2018-02-17T00:51:49.648Z,37.20
2018-02-17T00:54:17.925Z,44.23
2018-02-17T00:56:46.203Z,41.60
2018-02-17T00:59:14.485Z,64.03
2018-02-17T01:01:42.816Z,43.90
2018-02-17T01:04:11.960Z,46.30
2018-02-17T01:06:40.944Z,37.07
2018-02-17T01:09:09.268Z,50.60
2018-02-17T01:11:38.312Z,52.67
2018-02-17T01:14:07.209Z,33.70
2018-02-17T01:16:35.498Z,49.77
2018-02-17T01:19:03.792Z,40.47
2018-02-17T01:21:32.073Z,55.93
2018-02-17T01:24:00.395Z,32.00
2018-02-17T01:26:28.688Z,38.37
2018-02-17T01:28:57.396Z,29.23
2018-02-17T01:31:25.695Z,49.07
2018-02-17T01:33:53.973Z,23.80
2018-02-17T01:36:22.603Z,46.47
2018-02-17T01:38:51.216Z,54.03
2018-02-17T01:41:20.216Z,54.70
2018-02-17T01:43:48.499Z,51.30
2018-02-17T01:46:17.090Z,44.53
2018-02-17T01:48:45.368Z,41.50
2018-02-17T01:51:13.656Z,29.97
2018-02-17T01:53:42.256Z,42.53
2018-02-17T01:56:11.244Z,26.07
2018-02-17T01:58:39.545Z,24.73
2018-02-17T02:01:08.579Z,33.63
2018-02-17T02:03:37.316Z,26.83
2018-02-17T02:06:05.651Z,37.47
2018-02-17T02:08:34.045Z,22.50
2018-02-17T02:11:03.166Z,38.53
2018-02-17T02:13:31.460Z,32.30
2018-02-17T02:16:00.354Z,16.50
2018-02-17T02:18:29.347Z,26.77
2018-02-17T02:20:58.498Z,37.03
2018-02-17T02:23:27.394Z,23.37
2018-02-17T02:25:57.030Z,36.83
2018-02-17T02:28:25.880Z,43.73
2018-02-17T02:30:54.733Z,28.97
2018-02-17T02:33:24.125Z,34.47
2018-02-17T02:35:53.598Z,34.13
2018-02-17T02:38:21.877Z,24.53
2018-02-17T02:40:50.176Z,25.50
2018-02-17T02:43:18.464Z,19.10
2018-02-17T02:45:46.791Z,18.10
2018-02-17T02:48:15.960Z,17.50
2018-02-17T02:50:45.041Z,12.37
2018-02-17T02:53:13.901Z,14.40
2018-02-17T02:55:42.193Z,18.63
2018-02-17T02:58:10.476Z,12.37
2018-02-17T03:00:38.946Z,8.40
2018-02-17T03:03:07.240Z,23.17
2018-02-17T03:05:35.641Z,28.47
2018-02-17T03:08:04.715Z,18.43
2018-02-17T03:10:32.993Z,18.63
2018-02-17T03:13:01.292Z,32.57
2018-02-17T03:15:30.382Z,19.40
2018-02-17T03:17:58.678Z,20.73
2018-02-17T03:20:27.732Z,22.30
2018-02-17T03:22:57.422Z,20.60
2018-02-17T03:25:26.621Z,22.63
2018-02-17T03:27:55.792Z,20.07
2018-02-17T03:30:26.152Z,27.03
2018-02-17T03:32:54.475Z,13.73
2018-02-17T03:35:24.848Z,19.20
2018-02-17T03:37:53.716Z,24.50
2018-02-17T03:40:21.993Z,28.03
2018-02-17T03:42:51.244Z,38.40
2018-02-17T03:45:20.107Z,40.00
2018-02-17T03:47:48.388Z,38.67
2018-02-17T03:50:16.689Z,26.80
2018-02-17T03:52:44.968Z,43.53
2018-02-17T03:55:13.963Z,70.73
2018-02-17T03:57:45.193Z,39.83
2018-02-17T04:00:13.482Z,32.20
2018-02-17T04:02:41.764Z,53.90
2018-02-17T04:05:10.283Z,28.50
2018-02-17T04:07:39.333Z,37.37
2018-02-17T04:10:08.783Z,45.37
2018-02-17T04:12:38.024Z,33.83
2018-02-17T04:15:07.428Z,46.30
2018-02-17T04:17:36.424Z,29.27
2018-02-17T04:20:04.735Z,34.90
2018-02-17T04:22:33.136Z,32.47
2018-02-17T04:25:02.321Z,53.57
2018-02-17T04:27:31.614Z,31.63
2018-02-17T04:29:59.896Z,40.23
2018-02-17T04:32:28.184Z,46.43
2018-02-17T04:34:57.641Z,44.63
2018-02-17T04:37:26.761Z,78.47
2018-02-17T04:43:02.797Z,28.83
2018-02-17T04:45:35.774Z,38.87
2018-02-17T04:51:29.656Z,38.03
2018-02-17T04:54:04.933Z,28.87
2018-02-17T04:59:56.804Z,37.30
2018-02-17T05:02:30.699Z,31.53
2018-02-17T05:05:02.450Z,33.97
2018-02-17T05:07:33.715Z,34.90
2018-02-17T05:10:02.010Z,40.57
2018-02-17T05:12:31.076Z,51.50
2018-02-17T05:15:01.195Z,50.63
2018-02-17T05:17:30.373Z,28.00
2018-02-17T05:20:00.192Z,45.67
2018-02-17T05:22:30.140Z,40.03
2018-02-17T05:24:58.902Z,44.40
2018-02-17T05:27:31.504Z,52.97
2018-02-17T05:30:00.154Z,46.20
2018-02-17T05:32:31.276Z,51.33
2018-02-17T05:35:00.587Z,42.80
2018-02-17T05:37:29.623Z,49.00
2018-02-17T05:43:07.751Z,40.40
2018-02-17T05:45:50.914Z,34.10
2018-02-17T05:48:21.421Z,36.67
2018-02-17T05:50:49.691Z,40.10
2018-02-17T05:53:17.990Z,39.87
2018-02-17T05:55:46.681Z,39.80
2018-02-17T05:58:15.733Z,38.40
2018-02-17T06:00:44.665Z,38.70
2018-02-17T06:03:12.986Z,35.30
2018-02-17T06:05:42.183Z,39.10
2018-02-17T06:08:11.488Z,31.40
2018-02-17T06:10:40.614Z,46.83
2018-02-17T06:13:10.839Z,32.20
2018-02-17T06:15:40.629Z,51.20
2018-02-17T06:18:09.731Z,33.83
2018-02-17T06:20:38.010Z,39.13
2018-02-17T06:23:06.421Z,32.10
2018-02-17T06:25:35.628Z,37.77
2018-02-17T06:28:04.036Z,40.43
2018-02-17T06:30:33.117Z,49.80
2018-02-17T06:33:01.778Z,59.50
2018-02-17T06:35:30.053Z,50.40
2018-02-17T06:37:58.409Z,37.57
2018-02-17T06:40:26.706Z,45.20
2018-02-17T06:42:54.973Z,38.63
2018-02-17T06:45:23.293Z,31.30
2018-02-17T06:47:52.304Z,38.10
2018-02-17T06:50:21.560Z,33.03
2018-02-17T06:52:50.032Z,31.17
2018-02-17T06:55:18.304Z,35.43
2018-02-17T06:57:48.238Z,34.83
2018-02-17T07:00:16.718Z,57.03
2018-02-17T07:02:44.972Z,36.20
2018-02-17T07:05:13.257Z,51.27
2018-02-17T07:07:43.182Z,27.97
2018-02-17T07:10:11.466Z,50.53
2018-02-17T07:12:39.736Z,30.03
2018-02-17T07:15:08.736Z,42.13
2018-02-17T07:17:37.536Z,48.60
2018-02-17T07:20:05.824Z,46.47
2018-02-17T07:22:35.123Z,41.97
2018-02-17T07:25:04.913Z,38.67
2018-02-17T07:27:34.437Z,32.20
2018-02-17T07:30:03.745Z,48.00
2018-02-17T07:32:32.213Z,44.00
2018-02-17T07:35:00.788Z,33.60
2018-02-17T07:37:29.510Z,27.13
2018-02-17T07:39:58.555Z,39.47
2018-02-17T07:42:26.864Z,46.67
2018-02-17T07:44:55.848Z,30.00
2018-02-17T07:47:24.128Z,26.90
2018-02-17T07:49:53.065Z,20.30
2018-02-17T07:52:22.996Z,32.47
2018-02-17T07:54:53.669Z,41.40
2018-02-17T07:57:22.036Z,32.43
2018-02-17T07:59:51.758Z,46.50
2018-02-17T08:02:20.068Z,31.07
2018-02-17T08:04:48.461Z,35.10
2018-02-17T08:07:19.092Z,32.50
2018-02-17T08:09:48.237Z,34.27
2018-02-17T08:12:17.428Z,28.00
2018-02-17T08:14:45.837Z,33.80
2018-02-17T08:17:16.753Z,37.90
2018-02-17T08:19:45.009Z,19.43
2018-02-17T08:22:15.054Z,21.83
2018-02-17T08:24:43.976Z,23.77
2018-02-17T08:27:12.286Z,27.57
2018-02-17T08:29:42.206Z,33.27
2018-02-17T08:32:12.080Z,35.60
2018-02-17T08:34:41.888Z,35.07
2018-02-17T08:37:10.896Z,29.70
2018-02-17T08:39:39.297Z,37.20
2018-02-17T08:42:07.622Z,37.70
2018-02-17T08:44:36.000Z,33.33
2018-02-17T08:47:04.384Z,28.33
2018-02-17T08:49:32.661Z,22.53
2018-02-17T08:52:03.387Z,37.57
2018-02-17T08:54:31.776Z,35.23
2018-02-17T08:57:00.080Z,31.63
2018-02-17T08:59:28.748Z,40.33
2018-02-17T09:01:57.151Z,31.10
2018-02-17T09:04:25.957Z,26.47
2018-02-17T09:06:54.551Z,39.03
2018-02-17T09:09:25.840Z,23.80
2018-02-17T09:11:56.252Z,31.93
2018-02-17T09:14:25.729Z,25.17
2018-02-17T09:16:56.160Z,22.47
2018-02-17T09:19:25.936Z,28.37
2018-02-17T09:21:54.291Z,28.23
2018-02-17T09:24:22.628Z,29.13
2018-02-17T09:26:51.223Z,20.73
2018-02-17T09:29:20.253Z,24.30
2018-02-17T09:31:48.837Z,27.27
2018-02-17T09:34:17.465Z,19.13
2018-02-17T09:36:46.049Z,26.57
2018-02-17T09:39:15.104Z,18.03
2018-02-17T09:41:43.690Z,15.73
2018-02-17T09:44:11.976Z,13.93
2018-02-17T09:46:41.268Z,38.80
2018-02-17T09:49:10.376Z,12.87
2018-02-17T09:51:38.816Z,20.27
2018-02-17T09:54:08.515Z,14.87
2018-02-17T09:56:36.840Z,37.47
2018-02-17T09:59:05.123Z,18.57
2018-02-17T10:01:33.384Z,15.70
2018-02-17T10:04:03.618Z,25.90
2018-02-17T10:06:31.917Z,26.07
2018-02-17T10:09:00.280Z,17.17
2018-02-17T10:11:29.336Z,23.23
2018-02-17T10:13:59.408Z,14.30
2018-02-17T10:16:27.929Z,23.10
2018-02-17T10:18:56.267Z,14.57
2018-02-17T10:21:24.571Z,23.40
2018-02-17T10:23:53.839Z,22.23
2018-02-17T10:26:22.217Z,18.53
2018-02-17T10:28:50.479Z,33.93
2018-02-17T10:31:18.748Z,15.63
2018-02-17T10:33:47.368Z,20.03
2018-02-17T10:36:16.662Z,11.50
2018-02-17T10:38:45.850Z,18.93
2018-02-17T10:41:14.226Z,38.07
2018-02-17T10:43:43.131Z,14.70
2018-02-17T10:46:12.657Z,22.37
2018-02-17T10:48:41.005Z,17.53
2018-02-17T10:51:09.289Z,22.97
2018-02-17T10:53:37.569Z,19.57
2018-02-17T10:56:05.872Z,18.77
2018-02-17T10:58:34.446Z,23.13
2018-02-17T11:01:02.838Z,17.70
2018-02-17T11:03:31.104Z,11.53
2018-02-17T11:05:59.726Z,6.60
2018-02-17T11:08:28.521Z,13.23
2018-02-17T11:10:57.572Z,15.90
2018-02-17T11:13:26.063Z,26.13
2018-02-17T11:15:54.319Z,19.17
2018-02-17T11:18:24.232Z,27.30
2018-02-17T11:20:53.440Z,13.00
2018-02-17T11:23:21.725Z,13.07
2018-02-17T11:25:50.056Z,12.67
2018-02-17T11:28:19.900Z,13.73
2018-02-17T11:30:48.189Z,13.37
2018-02-17T11:33:16.490Z,16.13
2018-02-17T11:35:44.839Z,17.37
2018-02-17T11:38:14.029Z,12.10
2018-02-17T11:40:42.341Z,10.40
2018-02-17T11:43:10.612Z,4.50
2018-02-17T11:45:38.907Z,6.27
2018-02-17T11:48:07.208Z,9.40
2018-02-17T11:50:36.238Z,5.90
2018-02-17T11:53:04.510Z,8.87
2018-02-17T11:55:33.312Z,6.10
2018-02-17T11:58:02.405Z,5.83
2018-02-17T12:00:31.436Z,13.17
2018-02-17T12:03:01.329Z,6.90
2018-02-17T12:05:29.601Z,12.97
2018-02-17T12:07:57.882Z,9.43
2018-02-17T12:10:26.281Z,18.60
2018-02-17T12:12:54.588Z,15.73
2018-02-17T12:15:22.849Z,14.27
2018-02-17T12:17:51.659Z,10.83
2018-02-17T12:20:20.694Z,13.93
2018-02-17T12:22:48.973Z,8.30
2018-02-17T12:25:17.469Z,10.47
2018-02-17T12:27:45.742Z,10.50
2018-02-17T12:30:14.009Z,5.63
2018-02-17T12:32:43.217Z,28.33
2018-02-17T12:35:11.492Z,17.20
2018-02-17T12:37:39.765Z,18.03
2018-02-17T12:40:09.037Z,13.20
2018-02-17T12:42:38.079Z,13.20
2018-02-17T12:45:07.858Z,14.10
2018-02-17T12:47:36.870Z,21.17
2018-02-17T12:50:06.132Z,13.27
2018-02-17T12:52:36.369Z,17.57
2018-02-17T12:55:04.680Z,24.83
2018-02-17T12:57:33.069Z,22.20
2018-02-17T13:00:01.396Z,14.27
2018-02-17T13:02:30.429Z,16.93
2018-02-17T13:04:58.707Z,12.10
2018-02-17T13:07:26.996Z,22.27
2018-02-17T13:09:55.269Z,16.53
2018-02-17T13:12:23.718Z,15.10
2018-02-17T13:14:52.975Z,14.63
2018-02-17T13:17:21.428Z,7.93
2018-02-17T13:19:49.703Z,10.97
2018-02-17T13:22:17.990Z,17.13
2018-02-17T13:24:46.262Z,17.67
2018-02-17T13:27:15.297Z,28.43
2018-02-17T13:29:44.660Z,37.23
2018-02-17T13:32:12.917Z,39.57
2018-02-17T13:34:41.179Z,23.40
2018-02-17T13:37:09.987Z,46.63
2018-02-17T13:39:38.276Z,23.40
2018-02-17T13:42:06.572Z,24.63
2018-02-17T13:44:35.056Z,17.20
2018-02-17T13:47:03.601Z,23.00
2018-02-17T13:49:32.196Z,33.70
2018-02-17T13:52:00.505Z,34.50
2018-02-17T13:54:28.956Z,20.77
2018-02-17T13:56:58.788Z,20.37
2018-02-17T13:59:27.076Z,18.60
2018-02-17T14:01:55.356Z,11.73
2018-02-17T14:04:23.633Z,14.70
2018-02-17T14:06:51.930Z,15.10
2018-02-17T14:09:20.214Z,11.63
2018-02-17T14:11:49.008Z,10.70
2018-02-17T14:14:17.564Z,17.40
2018-02-17T14:16:45.868Z,21.97
2018-02-17T14:19:14.265Z,9.83
2018-02-17T14:21:43.601Z,18.83
2018-02-17T14:24:11.980Z,16.33
2018-02-17T14:26:40.952Z,16.27
2018-02-17T14:29:10.037Z,23.20
2018-02-17T14:31:39.729Z,20.93
2018-02-17T14:34:08.529Z,16.70
2018-02-17T14:36:37.280Z,19.43
2018-02-17T14:39:06.370Z,19.87
2018-02-17T14:41:34.753Z,26.03
2018-02-17T14:44:03.056Z,22.50
2018-02-17T14:46:32.159Z,19.53
2018-02-17T14:49:00.445Z,15.00
2018-02-17T14:51:29.537Z,20.73
2018-02-17T14:53:57.908Z,17.77
2018-02-17T14:56:26.926Z,22.57
2018-02-17T14:58:56.005Z,40.93
2018-02-17T15:01:25.115Z,25.07
2018-02-17T15:03:54.576Z,20.73
2018-02-17T15:06:22.877Z,20.63
2018-02-17T15:08:51.152Z,22.53
2018-02-17T15:11:19.725Z,19.03
2018-02-17T15:13:48.596Z,14.27
2018-02-17T15:16:17.376Z,9.33
2018-02-17T15:18:46.140Z,28.50
2018-02-17T15:21:14.428Z,16.87
2018-02-17T15:23:43.038Z,20.53
2018-02-17T15:26:11.399Z,20.33
2018-02-17T15:28:40.920Z,24.77
2018-02-17T15:31:09.194Z,32.93
2018-02-17T15:33:37.959Z,25.00
2018-02-17T15:36:07.303Z,20.90
2018-02-17T15:38:35.577Z,17.67
2018-02-17T15:41:04.110Z,17.43
2018-02-17T15:43:33.157Z,10.77
2018-02-17T15:46:01.433Z,20.10
2018-02-17T15:48:29.817Z,10.30
2018-02-17T15:50:58.692Z,11.60
2018-02-17T15:53:27.023Z,9.80
2018-02-17T15:55:55.284Z,6.50
2018-02-17T15:58:24.348Z,12.80
2018-02-17T16:00:52.628Z,13.83
2018-02-17T16:03:20.918Z,6.83
2018-02-17T16:05:49.184Z,14.57
2018-02-17T16:08:17.480Z,9.67
2018-02-17T16:10:45.761Z,14.43
2018-02-17T16:13:14.028Z,8.27
2018-02-17T16:15:42.313Z,8.67
2018-02-17T16:18:10.599Z,10.90
2018-02-17T16:20:38.890Z,8.47
2018-02-17T16:23:08.021Z,18.43
2018-02-17T16:25:37.249Z,20.73
2018-02-17T16:28:06.246Z,20.47
2018-02-17T16:30:34.610Z,18.07
2018-02-17T16:33:04.149Z,23.90
2018-02-17T16:35:32.456Z,30.63
2018-02-17T16:38:01.484Z,20.63
2018-02-17T16:40:29.874Z,30.90
2018-02-17T16:42:58.767Z,10.40
2018-02-17T16:45:27.066Z,14.00
2018-02-17T16:47:55.674Z,9.83
2018-02-17T16:50:24.381Z,4.43
2018-02-17T16:52:54.876Z,9.00
2018-02-17T16:55:23.153Z,11.77
2018-02-17T16:57:51.459Z,18.77
2018-02-17T17:00:20.045Z,7.33
2018-02-17T17:02:48.309Z,17.57
2018-02-17T17:05:17.368Z,23.73
2018-02-17T17:07:45.666Z,24.03
2018-02-17T17:10:14.584Z,26.00
2018-02-17T17:12:42.889Z,22.10
2018-02-17T17:15:11.300Z,26.20
2018-02-17T17:17:39.556Z,27.93
2018-02-17T17:20:08.508Z,16.93
2018-02-17T17:22:36.850Z,36.63
2018-02-17T17:25:06.180Z,14.70
2018-02-17T17:27:35.293Z,34.17
2018-02-17T17:30:03.613Z,18.17
2018-02-17T17:32:32.363Z,22.23
2018-02-17T17:35:00.696Z,19.43
2018-02-17T17:37:29.024Z,24.13
2018-02-17T17:39:58.977Z,12.23
2018-02-17T17:42:27.282Z,18.37
2018-02-17T17:44:55.590Z,17.53
2018-02-17T17:47:23.912Z,9.40
2018-02-17T17:49:52.838Z,17.47
2018-02-17T17:52:21.300Z,8.47
2018-02-17T17:54:49.617Z,17.93
2018-02-17T17:57:17.869Z,15.00
2018-02-17T17:59:46.162Z,16.23
2018-02-17T18:02:14.425Z,12.63
2018-02-17T18:04:43.036Z,10.53
2018-02-17T18:07:12.488Z,12.80
2018-02-17T18:09:41.601Z,13.60
2018-02-17T18:12:09.884Z,9.03
2018-02-17T18:14:39.076Z,10.90
2018-02-17T18:17:07.358Z,10.23
2018-02-17T18:19:35.636Z,5.40
2018-02-17T18:22:03.921Z,9.37
2018-02-17T18:24:32.192Z,7.30
2018-02-17T18:27:00.502Z,11.53
2018-02-17T18:29:28.860Z,19.97
2018-02-17T18:31:57.219Z,7.70
2018-02-17T18:34:27.360Z,15.77
2018-02-17T18:36:55.820Z,14.40
2018-02-17T18:39:25.180Z,18.73
2018-02-17T18:41:54.330Z,7.00
2018-02-17T18:44:22.696Z,9.50
2018-02-17T18:46:51.577Z,10.40
2018-02-17T18:49:19.843Z,16.67
2018-02-17T18:51:48.180Z,12.60
2018-02-17T18:54:16.556Z,13.27
2018-02-17T18:56:45.448Z,10.77
2018-02-17T18:59:14.525Z,8.83
2018-02-17T19:01:42.793Z,16.50
2018-02-17T19:04:11.078Z,12.17
2018-02-17T19:06:39.365Z,4.43
2018-02-17T19:09:07.661Z,6.30
2018-02-17T19:11:35.921Z,14.10
2018-02-17T19:14:04.302Z,11.07
2018-02-17T19:16:33.413Z,10.80
2018-02-17T19:19:01.692Z,11.80
2018-02-17T19:21:30.042Z,8.80
2018-02-17T19:23:58.927Z,6.63
2018-02-17T19:26:27.416Z,6.10
2018-02-17T19:28:55.692Z,12.27
2018-02-17T19:31:24.625Z,8.80
2018-02-17T19:33:53.861Z,16.73
2018-02-17T19:36:22.128Z,16.50
2018-02-17T19:38:51.215Z,8.97
2018-02-17T19:41:19.660Z,11.17
2018-02-17T19:43:47.928Z,19.03
2018-02-17T19:46:16.265Z,12.57
2018-02-17T19:48:44.712Z,5.83
2018-02-17T19:51:13.021Z,8.80
2018-02-17T19:53:42.341Z,9.33
2018-02-17T19:56:10.641Z,5.03
2018-02-17T19:58:38.924Z,12.80
2018-02-17T20:01:07.245Z,8.53
2018-02-17T20:03:35.581Z,12.30
2018-02-17T20:06:03.884Z,17.80
2018-02-17T20:08:32.821Z,3.97
2018-02-17T20:11:01.144Z,16.27
2018-02-17T20:13:29.448Z,18.30
2018-02-17T20:15:57.818Z,10.90
2018-02-17T20:18:26.133Z,11.00
2018-02-17T20:20:55.590Z,11.53
2018-02-17T20:23:24.450Z,8.40
2018-02-17T20:25:52.753Z,14.83
2018-02-17T20:28:21.150Z,6.90
2018-02-17T20:30:49.503Z,8.30
2018-02-17T20:33:17.788Z,12.00
2018-02-17T20:35:46.601Z,3.17
2018-02-17T20:38:15.504Z,12.10
2018-02-17T20:40:44.553Z,7.10
2018-02-17T20:43:12.836Z,11.53
2018-02-17T20:45:41.169Z,6.00
2018-02-17T20:48:11.719Z,8.73
2018-02-17T20:50:40.003Z,14.47
2018-02-17T20:53:08.356Z,18.37
2018-02-17T20:55:38.224Z,15.20
2018-02-17T20:58:06.488Z,17.87
2018-02-17T21:00:35.301Z,11.03
2018-02-17T21:03:03.570Z,8.87
2018-02-17T21:05:31.833Z,8.33
2018-02-17T21:08:00.430Z,13.13
2018-02-17T21:10:29.215Z,9.37
2018-02-17T21:12:58.931Z,11.17
2018-02-17T21:15:27.324Z,13.70
2018-02-17T21:17:55.740Z,14.93
2018-02-17T21:20:24.781Z,9.73
2018-02-17T21:22:53.161Z,6.43
2018-02-17T21:25:21.433Z,12.10
2018-02-17T21:27:49.700Z,10.67
2018-02-17T21:30:18.013Z,14.00
2018-02-17T21:32:46.597Z,10.70
2018-02-17T21:35:15.600Z,12.30
2018-02-17T21:37:44.449Z,10.07
2018-02-17T21:40:12.718Z,10.67
2018-02-17T21:42:40.993Z,12.87
2018-02-17T21:45:09.501Z,11.47
2018-02-17T21:47:37.777Z,8.47
2018-02-17T21:50:07.299Z,14.93
2018-02-17T21:52:36.174Z,11.43
2018-02-17T21:55:04.434Z,10.77
2018-02-17T21:57:32.831Z,7.07
2018-02-17T22:00:02.557Z,10.67
2018-02-17T22:02:30.830Z,4.93
2018-02-17T22:04:59.408Z,18.87
2018-02-17T22:07:28.936Z,9.53
2018-02-17T22:09:58.672Z,6.00
2018-02-17T22:12:28.074Z,10.90
2018-02-17T22:14:56.666Z,12.10
2018-02-17T22:17:25.736Z,14.47
2018-02-17T22:19:54.557Z,10.37
2018-02-17T22:22:24.432Z,11.03
2018-02-17T22:24:52.784Z,5.93
2018-02-17T22:27:21.068Z,14.97
2018-02-17T22:29:49.351Z,12.93
2018-02-17T22:32:18.440Z,8.00
2018-02-17T22:34:47.052Z,17.73
2018-02-17T22:37:15.318Z,13.57
2018-02-17T22:39:43.608Z,12.63
2018-02-17T22:42:12.829Z,9.47
2018-02-17T22:44:41.269Z,8.73
2018-02-17T22:47:09.541Z,13.60
2018-02-17T22:49:38.032Z,3.77
2018-02-17T22:52:06.311Z,9.97
2018-02-17T22:54:34.584Z,11.00
2018-02-17T22:57:03.224Z,10.33
2018-02-17T22:59:32.245Z,5.63
2018-02-17T23:02:00.532Z,12.37
2018-02-17T23:04:28.833Z,8.63
2018-02-17T23:06:57.104Z,7.47
2018-02-17T23:09:25.391Z,7.50
2018-02-17T23:11:53.720Z,8.40
2018-02-17T23:14:23.337Z,10.00
2018-02-17T23:16:52.365Z,14.53
2018-02-17T23:19:20.892Z,7.77
2018-02-17T23:21:50.161Z,6.57
2018-02-17T23:24:18.437Z,8.90
2018-02-17T23:26:46.755Z,8.60
2018-02-17T23:29:15.802Z,3.90
2018-02-17T23:31:44.205Z,10.53
2018-02-17T23:34:12.575Z,6.40
2018-02-17T23:36:41.138Z,7.23
2018-02-17T23:39:10.752Z,15.23
2018-02-17T23:41:39.012Z,9.90
2018-02-17T23:44:07.419Z,5.67
2018-02-17T23:46:35.796Z,9.50
2018-02-17T23:49:04.389Z,4.93
2018-02-17T23:51:32.698Z,5.10
2018-02-17T23:54:01.754Z,17.47
2018-02-17T23:56:30.034Z,12.77
2018-02-17T23:58:59.449Z,18.67
